createdAt,value
2023-01-01T00:00:22.899Z,66.71
2023-01-01T00:02:50.933Z,66.33
2023-01-01T00:05:18.929Z,66.01
2023-01-01T00:07:46.698Z,65.88
2023-01-01T00:10:29.665Z,65.87
2023-01-01T00:12:59.638Z,67.09
2023-01-01T00:15:28.472Z,65.79
2023-01-01T00:17:56.680Z,65.58
2023-01-01T00:20:27.630Z,66.02
2023-01-01T00:22:59.476Z,65.85
2023-01-01T00:25:27.293Z,65.94
2023-01-01T00:27:55.813Z,66.14
2023-01-01T00:30:25.718Z,66.31
2023-01-01T00:32:54.601Z,66.06
2023-01-01T00:35:23.919Z,66.02
2023-01-01T00:37:51.723Z,66.22
2023-01-01T00:40:19.759Z,66.53
2023-01-01T00:42:47.556Z,66.08
2023-01-01T00:45:21.021Z,65.98
2023-01-01T00:47:51.610Z,66.03
2023-01-01T00:50:19.940Z,65.93
2023-01-01T00:52:49.281Z,66.25
2023-01-01T00:55:17.428Z,66.23
2023-01-01T00:57:45.315Z,66.34
2023-01-01T01:00:15.239Z,66.29
2023-01-01T01:02:43.237Z,65.87
2023-01-01T01:05:12.776Z,65.66
2023-01-01T01:07:40.941Z,65.65
2023-01-01T01:10:12.191Z,65.83
2023-01-01T01:12:40.269Z,65.40
2023-01-01T01:15:09.072Z,65.90
2023-01-01T01:17:37.078Z,65.23
2023-01-01T01:20:06.275Z,65.50
2023-01-01T01:22:35.792Z,65.15
2023-01-01T01:25:03.829Z,64.94
2023-01-01T01:27:32.025Z,63.89
2023-01-01T01:29:59.845Z,63.09
2023-01-01T01:32:27.678Z,62.63
2023-01-01T01:34:55.504Z,62.09
2023-01-01T01:37:23.280Z,61.73
2023-01-01T01:39:54.114Z,61.34
2023-01-01T01:42:22.598Z,61.26
2023-01-01T01:44:59.803Z,61.10
2023-01-01T01:47:32.142Z,61.25
2023-01-01T01:50:04.899Z,61.78
2023-01-01T01:52:35.227Z,61.90
2023-01-01T01:55:06.486Z,62.71
2023-01-01T01:57:35.006Z,63.42
2023-01-01T02:00:10.654Z,63.57
2023-01-01T02:02:43.719Z,63.65
2023-01-01T02:05:12.118Z,64.37
2023-01-01T02:07:40.794Z,64.05
2023-01-01T02:10:10.647Z,64.33
2023-01-01T02:12:38.533Z,64.26
2023-01-01T02:15:08.154Z,64.62
2023-01-01T02:17:42.269Z,64.42
2023-01-01T02:20:26.679Z,64.45
2023-01-01T02:23:16.983Z,64.75
2023-01-01T02:26:00.888Z,64.78
2023-01-01T02:28:45.342Z,64.73
2023-01-01T02:31:21.284Z,65.05
2023-01-01T02:33:54.442Z,65.01
2023-01-01T02:36:24.139Z,65.37
2023-01-01T02:38:56.163Z,65.14
2023-01-01T02:41:34.928Z,65.14
2023-01-01T02:46:33.756Z,65.36
2023-01-01T02:49:09.593Z,65.46
2023-01-01T02:51:46.044Z,65.12
2023-01-01T02:54:25.148Z,65.16
2023-01-01T02:57:00.180Z,65.43
2023-01-01T02:59:52.732Z,65.31
2023-01-01T03:02:27.349Z,65.24
2023-01-01T03:05:07.346Z,65.40
2023-01-01T03:07:45.576Z,65.08
2023-01-01T03:10:17.873Z,65.20
2023-01-01T03:12:55.928Z,65.67
2023-01-01T03:15:32.414Z,65.49
2023-01-01T03:18:04.410Z,65.29
2023-01-01T03:20:37.234Z,65.13
2023-01-01T03:23:08.972Z,64.86
2023-01-01T03:25:41.649Z,64.92
2023-01-01T03:28:14.042Z,63.99
2023-01-01T03:30:46.647Z,63.46
2023-01-01T03:33:19.249Z,63.45
2023-01-01T03:35:51.560Z,62.54
2023-01-01T03:38:23.572Z,61.85
2023-01-01T03:40:55.651Z,61.31
2023-01-01T03:43:31.793Z,60.66
2023-01-01T03:46:03.246Z,60.53
2023-01-01T03:48:55.753Z,60.91
2023-01-01T03:51:31.123Z,61.29
2023-01-01T03:54:03.285Z,61.84
2023-01-01T03:56:39.035Z,62.41
2023-01-01T03:59:14.089Z,62.99
2023-01-01T04:01:47.922Z,63.34
2023-01-01T04:04:17.509Z,63.47
2023-01-01T04:06:45.704Z,63.60
2023-01-01T04:09:18.941Z,63.46
2023-01-01T04:12:05.067Z,63.88
2023-01-01T04:14:36.791Z,64.39
2023-01-01T04:17:07.535Z,64.22
2023-01-01T04:19:35.391Z,64.19
2023-01-01T04:22:04.034Z,64.66
2023-01-01T04:24:31.830Z,64.36
2023-01-01T04:26:59.757Z,64.89
2023-01-01T04:29:27.501Z,65.01
2023-01-01T04:31:55.405Z,64.90
2023-01-01T04:34:24.552Z,65.24
2023-01-01T04:36:53.072Z,64.92
2023-01-01T04:39:20.800Z,65.68
2023-01-01T04:41:48.626Z,65.35
2023-01-01T04:44:16.433Z,65.12
2023-01-01T04:46:44.205Z,65.17
2023-01-01T04:49:11.932Z,65.24
2023-01-01T04:51:41.256Z,65.52
2023-01-01T04:54:09.354Z,65.87
2023-01-01T04:56:37.124Z,65.79
2023-01-01T04:59:04.941Z,65.46
2023-01-01T05:01:32.842Z,65.68
2023-01-01T05:04:01.714Z,66.07
2023-01-01T05:06:30.147Z,65.57
2023-01-01T05:08:59.597Z,65.75
2023-01-01T05:11:29.395Z,65.98
2023-01-01T05:13:59.146Z,66.13
2023-01-01T05:16:29.706Z,65.76
2023-01-01T05:18:58.101Z,65.83
2023-01-01T05:21:27.660Z,65.80
2023-01-01T05:23:56.746Z,65.87
2023-01-01T05:26:28.945Z,65.91
2023-01-01T05:28:57.992Z,65.90
2023-01-01T05:31:27.908Z,66.11
2023-01-01T05:36:27.350Z,65.95
2023-01-01T05:38:55.786Z,65.31
2023-01-01T05:41:24.391Z,64.41
2023-01-01T05:43:54.309Z,63.81
2023-01-01T05:46:24.298Z,63.73
2023-01-01T05:48:53.864Z,62.58
2023-01-01T05:51:23.849Z,62.46
2023-01-01T05:53:52.131Z,61.70
2023-01-01T05:56:20.063Z,60.95
2023-01-01T05:58:48.435Z,61.00
2023-01-01T06:01:20.028Z,61.01
2023-01-01T06:03:49.038Z,61.70
2023-01-01T06:06:18.729Z,62.67
2023-01-01T06:08:50.932Z,63.05
2023-01-01T06:11:18.882Z,63.20
2023-01-01T06:13:46.838Z,63.78
2023-01-01T06:16:15.794Z,63.84
2023-01-01T06:18:45.292Z,64.17
2023-01-01T06:21:15.409Z,64.34
2023-01-01T06:23:43.828Z,64.44
2023-01-01T06:26:13.552Z,64.64
2023-01-01T06:28:41.950Z,64.91
2023-01-01T06:31:12.308Z,64.88
2023-01-01T06:33:41.015Z,65.01
2023-01-01T06:36:12.216Z,64.93
2023-01-01T06:38:42.369Z,65.11
2023-01-01T06:41:13.560Z,65.00
2023-01-01T06:43:41.959Z,64.93
2023-01-01T06:46:17.245Z,65.42
2023-01-01T06:48:45.775Z,65.13
2023-01-01T06:51:17.730Z,65.49
2023-01-01T06:53:45.744Z,65.48
2023-01-01T06:56:13.976Z,65.61
2023-01-01T06:58:42.469Z,66.25
2023-01-01T07:01:13.923Z,66.14
2023-01-01T07:03:42.988Z,66.54
2023-01-01T07:06:11.839Z,67.04
2023-01-01T07:08:40.990Z,67.24
2023-01-01T07:11:08.790Z,66.96
2023-01-01T07:13:36.646Z,67.46
2023-01-01T07:16:12.168Z,67.46
2023-01-01T07:18:41.038Z,67.60
2023-01-01T07:21:29.311Z,68.26
2023-01-01T07:23:59.814Z,68.33
2023-01-01T07:26:29.700Z,67.96
2023-01-01T07:29:04.600Z,68.40
2023-01-01T07:31:35.084Z,68.13
2023-01-01T07:34:02.992Z,68.55
2023-01-01T07:36:30.822Z,68.50
2023-01-01T07:39:00.090Z,68.44
2023-01-01T07:41:27.907Z,68.92
2023-01-01T07:43:55.741Z,68.53
2023-01-01T07:46:23.648Z,69.01
2023-01-01T07:48:51.463Z,69.17
2023-01-01T07:51:19.222Z,69.02
2023-01-01T07:53:47.213Z,68.80
2023-01-01T07:56:16.345Z,69.02
2023-01-01T07:58:44.126Z,68.85
2023-01-01T08:01:13.029Z,69.19
2023-01-01T08:03:40.920Z,69.10
2023-01-01T08:06:13.425Z,69.20
2023-01-01T08:08:41.579Z,69.19
2023-01-01T08:11:09.732Z,69.32
2023-01-01T08:13:38.864Z,69.15
2023-01-01T08:16:07.180Z,69.61
2023-01-01T08:18:35.169Z,69.17
2023-01-01T08:21:03.727Z,69.75
2023-01-01T08:23:31.679Z,69.52
2023-01-01T08:26:01.260Z,69.65
2023-01-01T08:28:29.829Z,69.61
2023-01-01T08:30:59.426Z,69.54
2023-01-01T08:33:27.401Z,69.93
2023-01-01T08:35:55.245Z,70.00
2023-01-01T08:38:23.330Z,69.99
2023-01-01T08:40:51.213Z,69.63
2023-01-01T08:43:19.277Z,69.81
2023-01-01T08:45:47.281Z,70.28
2023-01-01T08:48:16.447Z,70.23
2023-01-01T08:50:44.240Z,70.36
2023-01-01T08:53:12.029Z,70.50
2023-01-01T08:55:39.827Z,70.21
2023-01-01T08:58:08.513Z,70.36
2023-01-01T09:00:36.737Z,70.46
2023-01-01T09:03:04.854Z,70.06
2023-01-01T09:05:34.144Z,70.10
2023-01-01T09:08:01.931Z,70.17
2023-01-01T09:10:29.765Z,70.47
2023-01-01T09:12:57.712Z,70.42
2023-01-01T09:15:25.571Z,70.11
2023-01-01T09:17:53.385Z,70.66
2023-01-01T09:20:21.271Z,70.60
2023-01-01T09:22:50.433Z,70.35
2023-01-01T09:25:18.523Z,70.31
2023-01-01T09:27:46.385Z,70.10
2023-01-01T09:30:15.498Z,70.06
2023-01-01T09:32:43.349Z,70.50
2023-01-01T09:35:11.125Z,70.02
2023-01-01T09:37:39.124Z,70.28
2023-01-01T09:40:10.045Z,70.13
2023-01-01T09:42:44.695Z,70.17
2023-01-01T09:45:24.266Z,70.11
2023-01-01T09:47:56.379Z,70.52
2023-01-01T09:50:28.918Z,70.05
2023-01-01T09:52:58.038Z,70.31
2023-01-01T09:55:30.516Z,70.36
2023-01-01T09:57:58.933Z,70.67
2023-01-01T10:00:30.029Z,70.44
2023-01-01T10:03:14.224Z,70.26
2023-01-01T10:05:53.810Z,70.22
2023-01-01T10:08:44.600Z,70.65
2023-01-01T10:11:21.663Z,70.53
2023-01-01T10:13:50.725Z,70.55
2023-01-01T10:16:28.836Z,70.45
2023-01-01T10:18:59.649Z,70.39
2023-01-01T10:21:31.663Z,70.29
2023-01-01T10:24:03.427Z,70.55
2023-01-01T10:26:35.873Z,70.40
2023-01-01T10:29:14.256Z,70.57
2023-01-01T10:31:46.508Z,70.16
2023-01-01T10:34:17.511Z,70.11
2023-01-01T10:36:45.663Z,70.39
2023-01-01T10:39:17.052Z,70.25
2023-01-01T10:41:47.248Z,70.38
2023-01-01T10:44:17.818Z,70.24
2023-01-01T10:46:49.800Z,70.20
2023-01-01T10:49:17.684Z,70.41
2023-01-01T10:51:48.026Z,70.08
2023-01-01T10:54:33.655Z,69.96
2023-01-01T10:57:15.129Z,69.92
2023-01-01T10:59:49.794Z,69.91
2023-01-01T11:02:22.890Z,69.77
2023-01-01T11:04:52.298Z,69.77
2023-01-01T11:07:29.995Z,70.01
2023-01-01T11:10:04.119Z,69.83
2023-01-01T11:15:38.647Z,69.96
2023-01-01T11:18:08.425Z,69.74
2023-01-01T11:20:36.253Z,69.71
2023-01-01T11:23:20.922Z,69.74
2023-01-01T11:26:07.953Z,69.49
2023-01-01T11:28:37.636Z,69.72
2023-01-01T11:31:15.246Z,69.39
2023-01-01T11:33:49.050Z,69.83
2023-01-01T11:36:23.506Z,69.63
2023-01-01T11:39:04.246Z,69.83
2023-01-01T11:41:42.460Z,69.27
2023-01-01T11:44:14.206Z,69.47
2023-01-01T11:46:42.135Z,69.21
2023-01-01T11:49:15.401Z,69.49
2023-01-01T11:51:43.259Z,69.71
2023-01-01T11:54:22.544Z,69.39
2023-01-01T11:56:53.455Z,68.99
2023-01-01T11:59:27.476Z,69.42
2023-01-01T12:01:58.214Z,69.33
2023-01-01T12:04:31.847Z,69.82
2023-01-01T12:07:05.817Z,69.38
2023-01-01T12:09:42.037Z,69.45
2023-01-01T12:12:17.745Z,68.91
2023-01-01T12:14:54.233Z,68.83
2023-01-01T12:17:26.210Z,68.79
2023-01-01T12:20:00.375Z,68.71
2023-01-01T12:22:29.017Z,68.42
2023-01-01T12:24:58.282Z,68.59
2023-01-01T12:28:01.909Z,68.86
2023-01-01T12:30:38.232Z,68.92
2023-01-01T12:33:19.136Z,68.66
2023-01-01T12:36:04.746Z,68.72
2023-01-01T12:39:05.488Z,68.47
2023-01-01T12:41:40.796Z,68.75
2023-01-01T12:44:17.985Z,68.64
2023-01-01T12:46:51.918Z,68.41
2023-01-01T12:49:37.317Z,68.75
2023-01-01T12:52:16.212Z,68.29
2023-01-01T12:55:16.473Z,68.31
2023-01-01T12:57:50.317Z,68.40
2023-01-01T13:00:21.428Z,68.19
2023-01-01T13:02:54.038Z,68.66
2023-01-01T13:05:25.343Z,68.41
2023-01-01T13:07:59.040Z,68.75
2023-01-01T13:10:31.067Z,68.78
2023-01-01T13:12:58.947Z,68.61
2023-01-01T13:15:45.272Z,69.13
2023-01-01T13:18:30.284Z,68.71
2023-01-01T13:21:06.538Z,68.36
2023-01-01T13:23:54.540Z,68.24
2023-01-01T13:26:42.061Z,67.97
2023-01-01T13:29:35.815Z,67.14
2023-01-01T13:32:09.240Z,66.68
2023-01-01T13:35:03.091Z,66.22
2023-01-01T13:37:45.031Z,66.06
2023-01-01T13:40:34.942Z,65.63
2023-01-01T13:43:07.934Z,65.95
2023-01-01T13:49:03.728Z,66.49
2023-01-01T13:55:11.366Z,67.15
2023-01-01T13:58:24.225Z,67.07
2023-01-01T14:01:26.423Z,67.37
2023-01-01T14:03:56.913Z,67.63
2023-01-01T14:06:30.512Z,67.89
2023-01-01T14:09:08.397Z,68.12
2023-01-01T14:11:36.358Z,68.23
2023-01-01T14:14:04.186Z,68.55
2023-01-01T14:16:32.038Z,68.16
2023-01-01T14:19:04.122Z,68.42
2023-01-01T14:21:35.078Z,68.78
2023-01-01T14:24:06.344Z,68.44
2023-01-01T14:26:38.367Z,68.78
2023-01-01T14:29:08.856Z,69.05
2023-01-01T14:31:41.312Z,68.96
2023-01-01T14:34:17.386Z,68.31
2023-01-01T14:36:55.815Z,68.59
2023-01-01T14:39:29.934Z,68.83
2023-01-01T14:42:01.859Z,69.08
2023-01-01T14:44:35.905Z,68.95
2023-01-01T14:47:05.165Z,69.20
2023-01-01T14:49:36.165Z,68.81
2023-01-01T14:52:08.339Z,69.36
2023-01-01T14:54:39.574Z,68.98
2023-01-01T14:57:12.487Z,69.04
2023-01-01T14:59:48.214Z,69.35
2023-01-01T15:02:18.606Z,69.09
2023-01-01T15:04:46.507Z,69.33
2023-01-01T15:07:21.950Z,68.99
2023-01-01T15:09:51.722Z,68.97
2023-01-01T15:12:20.369Z,69.18
2023-01-01T15:14:50.023Z,69.13
2023-01-01T15:17:19.451Z,69.11
2023-01-01T15:19:49.040Z,69.03
2023-01-01T15:22:26.117Z,69.14
2023-01-01T15:24:55.800Z,69.11
2023-01-01T15:27:26.958Z,69.23
2023-01-01T15:29:56.999Z,69.33
2023-01-01T15:32:27.842Z,69.44
2023-01-01T15:34:57.009Z,69.35
2023-01-01T15:37:31.124Z,69.09
2023-01-01T15:40:02.101Z,69.05
2023-01-01T15:42:34.517Z,69.38
2023-01-01T15:45:23.447Z,69.52
2023-01-01T15:47:52.619Z,69.17
2023-01-01T15:50:23.895Z,68.75
2023-01-01T15:52:56.096Z,68.39
2023-01-01T15:55:28.283Z,67.77
2023-01-01T15:57:56.980Z,67.42
2023-01-01T16:00:27.107Z,66.81
2023-01-01T16:02:59.360Z,66.54
2023-01-01T16:05:28.594Z,65.57
2023-01-01T16:08:01.451Z,65.96
2023-01-01T16:10:32.007Z,66.73
2023-01-01T16:13:00.167Z,66.86
2023-01-01T16:15:28.345Z,67.71
2023-01-01T16:17:56.515Z,67.51
2023-01-01T16:20:25.371Z,68.12
2023-01-01T16:22:53.269Z,68.70
2023-01-01T16:25:22.739Z,69.00
2023-01-01T16:27:51.888Z,68.53
2023-01-01T16:30:19.626Z,68.64
2023-01-01T16:32:49.136Z,68.81
2023-01-01T16:35:17.376Z,69.35
2023-01-01T16:37:45.540Z,69.36
2023-01-01T16:40:13.807Z,69.38
2023-01-01T16:42:41.553Z,69.22
2023-01-01T16:45:18.024Z,69.17
2023-01-01T16:47:45.896Z,69.46
2023-01-01T16:50:13.916Z,69.50
2023-01-01T16:52:44.884Z,69.58
2023-01-01T16:55:13.325Z,69.60
2023-01-01T16:57:41.147Z,69.74
2023-01-01T17:00:11.898Z,69.85
2023-01-01T17:02:39.893Z,69.93
2023-01-01T17:05:08.391Z,69.84
2023-01-01T17:07:36.219Z,69.67
2023-01-01T17:10:04.472Z,70.20
2023-01-01T17:12:32.653Z,69.89
2023-01-01T17:15:01.442Z,69.80
2023-01-01T17:17:30.709Z,70.31
2023-01-01T17:19:58.516Z,70.28
2023-01-01T17:22:30.647Z,70.14
2023-01-01T17:25:01.870Z,69.99
2023-01-01T17:27:29.650Z,70.33
2023-01-01T17:29:57.418Z,69.57
2023-01-01T17:32:25.183Z,69.38
2023-01-01T17:34:54.339Z,68.50
2023-01-01T17:37:22.159Z,67.76
2023-01-01T17:39:49.925Z,67.19
2023-01-01T17:42:17.744Z,66.84
2023-01-01T17:44:45.523Z,66.76
2023-01-01T17:47:13.673Z,66.87
2023-01-01T17:49:43.842Z,67.25
2023-01-01T17:52:13.027Z,67.26
2023-01-01T17:54:40.877Z,68.13
2023-01-01T17:57:08.721Z,68.21
2023-01-01T17:59:36.589Z,68.51
2023-01-01T18:02:05.931Z,68.41
2023-01-01T18:04:34.028Z,68.82
2023-01-01T18:07:06.005Z,69.28
2023-01-01T18:09:38.077Z,69.24
2023-01-01T18:12:07.149Z,69.44
2023-01-01T18:14:34.949Z,69.84
2023-01-01T18:17:03.895Z,69.87
2023-01-01T18:19:32.471Z,69.56
2023-01-01T18:22:00.274Z,69.97
2023-01-01T18:24:28.184Z,70.23
2023-01-01T18:26:57.352Z,70.17
2023-01-01T18:29:25.479Z,70.32
2023-01-01T18:31:53.255Z,70.49
2023-01-01T18:34:21.073Z,70.39
2023-01-01T18:36:48.963Z,70.38
2023-01-01T18:39:21.632Z,70.60
2023-01-01T18:42:21.907Z,70.25
2023-01-01T18:44:49.874Z,70.61
2023-01-01T18:47:19.580Z,70.39
2023-01-01T18:49:51.880Z,70.58
2023-01-01T18:52:23.959Z,70.56
2023-01-01T18:55:03.280Z,70.94
2023-01-01T18:57:32.700Z,71.11
2023-01-01T19:00:01.109Z,70.78
2023-01-01T19:02:36.108Z,71.12
2023-01-01T19:05:24.489Z,70.71
2023-01-01T19:07:57.261Z,71.11
2023-01-01T19:10:25.958Z,71.22
2023-01-01T19:12:56.306Z,71.08
2023-01-01T19:15:24.416Z,71.34
2023-01-01T19:17:54.686Z,71.01
2023-01-01T19:20:24.654Z,70.84
2023-01-01T19:22:52.430Z,70.89
2023-01-01T19:25:35.429Z,70.92
2023-01-01T19:28:26.951Z,71.20
2023-01-01T19:30:54.761Z,71.63
2023-01-01T19:33:22.561Z,71.14
2023-01-01T19:35:50.412Z,70.87
2023-01-01T19:38:18.173Z,71.13
2023-01-01T19:40:45.931Z,71.18
2023-01-01T19:43:15.154Z,71.47
2023-01-01T19:45:43.060Z,71.39
2023-01-01T19:48:10.837Z,71.38
2023-01-01T19:50:38.667Z,71.13
2023-01-01T19:53:06.669Z,71.26
2023-01-01T19:55:34.691Z,71.35
2023-01-01T19:58:02.536Z,71.08
2023-01-01T20:00:31.805Z,71.46
2023-01-01T20:03:25.890Z,71.25
2023-01-01T20:05:47.416Z,71.17
2023-01-01T20:08:15.377Z,71.50
2023-01-01T20:10:43.176Z,71.23
2023-01-01T20:13:11.000Z,71.03
2023-01-01T20:15:46.372Z,71.36
2023-01-01T20:18:14.647Z,71.48
2023-01-01T20:21:02.745Z,71.23
2023-01-01T20:23:30.607Z,71.34
2023-01-01T20:25:58.697Z,71.06
2023-01-01T20:28:44.227Z,71.55
2023-01-01T20:31:13.471Z,71.23
2023-01-01T20:33:41.287Z,71.27
2023-01-01T20:36:34.941Z,71.61
2023-01-01T20:39:02.793Z,71.41
2023-01-01T20:41:30.597Z,71.59
2023-01-01T20:44:01.462Z,71.58
2023-01-01T20:46:31.221Z,71.77
2023-01-01T20:48:59.754Z,71.21
2023-01-01T20:51:28.408Z,71.48
2023-01-01T20:53:56.194Z,71.37
2023-01-01T20:56:24.057Z,71.67
2023-01-01T20:58:56.110Z,71.54
2023-01-01T21:01:27.410Z,71.73
2023-01-01T21:03:56.645Z,71.87
2023-01-01T21:06:24.993Z,71.31
2023-01-01T21:08:52.914Z,71.77
2023-01-01T21:11:20.929Z,71.46
2023-01-01T21:13:49.157Z,71.43
2023-01-01T21:16:19.070Z,71.91
2023-01-01T21:18:47.853Z,71.55
2023-01-01T21:21:21.700Z,71.55
2023-01-01T21:23:50.636Z,71.97
2023-01-01T21:26:22.494Z,71.63
2023-01-01T21:28:50.263Z,71.67
2023-01-01T21:31:18.304Z,72.06
2023-01-01T21:33:47.256Z,71.84
2023-01-01T21:36:19.725Z,72.12
2023-01-01T21:38:48.892Z,71.60
2023-01-01T21:41:20.407Z,71.91
2023-01-01T21:43:50.271Z,72.04
2023-01-01T21:46:32.085Z,71.76
2023-01-01T21:49:02.822Z,71.93
2023-01-01T21:51:37.014Z,71.67
2023-01-01T21:54:18.930Z,71.75
2023-01-01T21:56:53.613Z,71.94
2023-01-01T21:59:34.682Z,71.89
2023-01-01T22:02:31.749Z,71.87
2023-01-01T22:05:02.001Z,71.78
2023-01-01T22:10:26.473Z,71.90
2023-01-01T22:12:58.547Z,72.02
2023-01-01T22:15:33.921Z,71.98
2023-01-01T22:18:19.063Z,71.73
2023-01-01T22:20:47.782Z,71.81
2023-01-01T22:23:25.472Z,72.24
2023-01-01T22:25:53.689Z,72.12
2023-01-01T22:28:24.459Z,71.88
2023-01-01T22:30:56.385Z,71.80
2023-01-01T22:33:29.029Z,71.80
2023-01-01T22:35:58.094Z,71.91
2023-01-01T22:38:33.288Z,71.96
2023-01-01T22:41:01.274Z,71.90
2023-01-01T22:43:33.705Z,72.09
2023-01-01T22:46:11.710Z,71.87
2023-01-01T22:48:40.135Z,72.02
2023-01-01T22:51:12.769Z,71.69
2023-01-01T22:53:41.945Z,71.92
2023-01-01T22:56:09.704Z,72.18
2023-01-01T22:58:37.465Z,71.84
2023-01-01T23:01:05.329Z,72.26
2023-01-01T23:03:33.297Z,72.28
2023-01-01T23:06:02.315Z,72.15
2023-01-01T23:08:30.685Z,71.85
2023-01-01T23:11:02.574Z,72.42
2023-01-01T23:13:47.902Z,72.48
2023-01-01T23:16:15.738Z,72.02
2023-01-01T23:18:43.603Z,72.50
2023-01-01T23:21:14.951Z,72.52
2023-01-01T23:23:44.402Z,72.21
2023-01-01T23:26:13.941Z,72.30
2023-01-01T23:28:41.855Z,72.34
2023-01-01T23:31:12.075Z,72.66
2023-01-01T23:33:40.717Z,72.16
2023-01-01T23:36:10.486Z,72.29
2023-01-01T23:38:39.871Z,72.31
2023-01-01T23:41:07.668Z,72.33
2023-01-01T23:43:43.029Z,72.61
2023-01-01T23:46:12.319Z,72.48
2023-01-01T23:48:40.565Z,72.27
2023-01-01T23:51:08.704Z,72.30
2023-01-01T23:53:36.730Z,72.42
2023-01-01T23:56:04.573Z,72.41
2023-01-01T23:58:32.535Z,72.70
